Time;durP1;ratioP1;P1;durP2;ratioP2;P2;SDS_P1;SDS_P2;PMS_P1;PMS_P2;Temp;Humidity;BMP_temperature;BMP_pressure;BME280_temperature;BME280_humidity;BME280_pressure;Samples;Min_cycle;Max_cycle;Signal;HPM_P1;HPM_P2
2022/03/06 00:04:43;;;;;;;4.32;2.80;;;;;;;17.90;45.67;96665.59;10285022;28;20038;-22
2022/03/06 00:09:44;;;;;;;4.57;3.47;;;;;;;17.90;45.57;96661.38;10284892;28;20031;-21
2022/03/06 00:14:44;;;;;;;4.83;2.53;;;;;;;17.88;45.71;96659.66;10287526;28;20110;-22
2022/03/06 00:19:44;;;;;;;6.40;3.07;;;;;;;17.88;45.98;96655.47;10284792;28;20062;-22
2022/03/06 00:24:45;;;;;;;7.65;2.45;;;;;;;17.88;45.87;96654.59;10279590;28;20038;-22
2022/03/06 00:29:45;;;;;;;4.63;3.67;;;;;;;17.86;45.75;96656.31;10289574;28;20035;-21
2022/03/06 00:34:48;;;;;;;3.93;2.83;;;;;;;17.88;46.05;96659.66;10284670;28;20039;-21
2022/03/06 00:39:48;;;;;;;5.70;2.42;;;;;;;17.88;45.53;96659.66;10294981;28;20043;-22
2022/03/06 00:44:49;;;;;;;3.70;3.00;;;;;;;17.87;45.83;96663.91;10292866;28;20031;-21
2022/03/06 00:49:49;;;;;;;3.80;2.70;;;;;;;17.93;45.91;96663.06;10292222;28;20070;-21
2022/03/06 00:54:49;;;;;;;4.77;2.83;;;;;;;17.89;46.06;96661.34;10280029;28;20054;-21
2022/03/06 00:59:50;;;;;;;3.72;3.17;;;;;;;17.91;45.64;96660.53;10281646;28;20069;-21
2022/03/06 01:04:50;;;;;;;3.50;2.57;;;;;;;17.89;45.55;96656.28;10282373;28;20038;-21
2022/03/06 01:09:51;;;;;;;5.07;2.58;;;;;;;17.86;45.85;96656.31;10280287;28;20050;-21
2022/03/06 01:14:51;;;;;;;4.70;2.90;;;;;;;17.82;46.00;96654.63;10288969;28;20057;-22
2022/03/06 01:19:52;;;;;;;3.25;2.13;;;;;;;17.85;45.74;96649.53;10283699;28;20030;-21
2022/03/06 01:24:52;;;;;;;5.22;3.00;;;;;;;17.87;45.60;96652.91;10278335;28;20043;-22
2022/03/06 01:29:53;;;;;;;3.85;2.65;;;;;;;17.85;45.63;96652.94;10279444;28;20501;-20
2022/03/06 01:34:53;;;;;;;4.03;2.53;;;;;;;17.81;45.73;96647.84;10283205;28;20030;-21
2022/03/06 01:39:54;;;;;;;4.00;2.30;;;;;;;17.86;45.63;96656.31;10289337;28;20037;-21
2022/03/06 01:44:54;;;;;;;3.42;2.30;;;;;;;17.87;45.78;96652.91;10289922;28;20402;-21
2022/03/06 01:49:55;;;;;;;3.05;2.40;;;;;;;17.90;45.11;96647.88;10279464;28;20045;-22
2022/03/06 01:54:55;;;;;;;3.53;2.80;;;;;;;17.93;45.50;96648.69;10278131;28;20569;-21
2022/03/06 01:59:56;;;;;;;2.75;2.50;;;;;;;17.88;45.45;96649.53;10277546;28;20503;-22
2022/03/06 02:04:56;;;;;;;4.50;2.78;;;;;;;17.85;45.55;96636.88;10280539;28;20035;-22
2022/03/06 02:09:57;;;;;;;2.90;2.30;;;;;;;17.86;44.90;96643.63;10278962;28;20038;-22
2022/03/06 02:15:00;;;;;;;3.67;2.75;;;;;;;17.80;45.74;96656.28;10286597;28;20280;-21
2022/03/06 02:20:08;;;;;;;4.13;2.35;;;;;;;17.81;45.68;96653.75;10278254;28;20486;-21
2022/03/06 02:25:12;;;;;;;3.45;2.53;;;;;;;17.81;45.56;96648.69;10282679;28;20074;-21
2022/03/06 02:30:22;;;;;;;3.33;2.60;;;;;;;17.79;45.67;96652.06;10284437;28;20031;-22
2022/03/06 02:35:22;;;;;;;3.00;2.45;;;;;;;17.76;45.80;96644.47;10271201;28;20026;-22
2022/03/06 02:40:23;;;;;;;3.10;2.33;;;;;;;17.79;45.82;96644.47;10281566;28;20479;-22
2022/03/06 02:45:26;;;;;;;2.67;2.45;;;;;;;17.82;45.52;96652.09;10277593;28;20119;-22
2022/03/06 02:50:30;;;;;;;3.92;2.45;;;;;;;17.85;45.28;96654.63;10281718;28;20491;-22
2022/03/06 02:55:31;;;;;;;2.85;2.47;;;;;;;17.86;45.53;96647.03;10277371;28;20030;-21
2022/03/06 03:00:31;;;;;;;3.58;2.92;;;;;;;17.89;45.29;96656.28;10267531;28;20038;-22
2022/03/06 03:05:32;;;;;;;2.47;2.00;;;;;;;17.77;45.54;96636.03;10282223;28;20039;-22
2022/03/06 03:10:32;;;;;;;2.45;1.98;;;;;;;17.83;45.35;96646.19;10288828;28;20117;-22
2022/03/06 03:15:32;;;;;;;3.75;2.90;;;;;;;17.81;45.41;96642.78;10285687;28;20034;-20
2022/03/06 03:20:33;;;;;;;2.80;2.28;;;;;;;17.82;45.31;96654.63;10289648;28;20061;-21
2022/03/06 03:25:33;;;;;;;2.42;2.22;;;;;;;17.82;45.32;96650.38;10273295;28;20034;-21
2022/03/06 03:30:34;;;;;;;4.10;2.50;;;;;;;17.84;45.27;96660.53;10285473;28;20441;-21
2022/03/06 03:35:34;;;;;;;3.63;2.40;;;;;;;17.82;45.14;96659.69;10273442;28;20638;-21
2022/03/06 03:40:35;;;;;;;2.67;2.45;;;;;;;17.84;45.35;96661.34;10274545;28;20170;-21
2022/03/06 03:45:35;;;;;;;3.03;2.43;;;;;;;17.84;45.42;96673.19;10284005;28;20034;-21
2022/03/06 03:50:35;;;;;;;3.22;2.20;;;;;;;17.82;45.35;96664.75;10282847;28;20539;-20
2022/03/06 03:55:36;;;;;;;3.73;2.57;;;;;;;17.88;45.17;96675.72;10281894;28;20054;-21
2022/03/06 04:00:37;;;;;;;3.75;2.30;;;;;;;17.88;45.25;96672.34;10298625;28;20357;-20
2022/03/06 04:05:37;;;;;;;3.40;2.55;;;;;;;17.91;44.90;96690.09;10287291;28;20515;-21
2022/03/06 04:10:37;;;;;;;3.90;2.30;;;;;;;17.86;45.17;96686.69;10293743;28;20062;-21
2022/03/06 04:15:38;;;;;;;2.53;2.23;;;;;;;17.85;45.35;96685.88;10286785;28;20294;-21
2022/03/06 04:20:38;;;;;;;3.17;2.60;;;;;;;17.81;45.27;96690.88;10288771;28;20038;-21
2022/03/06 04:25:39;;;;;;;3.05;2.40;;;;;;;17.81;45.29;96689.22;10282107;28;20077;-21
2022/03/06 04:30:39;;;;;;;2.80;2.37;;;;;;;17.83;45.09;96696.81;10281421;28;20038;-22
2022/03/06 04:35:40;;;;;;;2.80;2.35;;;;;;;17.77;45.27;96696.81;10287125;28;20042;-21
2022/03/06 04:40:40;;;;;;;2.42;2.22;;;;;;;17.78;45.25;96701.03;10280056;28;20042;-21
2022/03/06 04:45:40;;;;;;;3.43;2.47;;;;;;;17.59;45.68;96679.03;10296250;28;20031;-22
2022/03/06 04:50:41;;;;;;;2.63;2.43;;;;;;;17.65;45.64;96702.69;10286816;28;20484;-21
2022/03/06 04:55:41;;;;;;;2.92;2.63;;;;;;;17.67;45.50;96702.69;10284742;28;20170;-21
2022/03/06 05:00:41;;;;;;;2.50;2.30;;;;;;;17.77;45.51;96701.88;10293264;28;20034;-21
2022/03/06 05:05:42;;;;;;;2.90;2.40;;;;;;;17.79;45.23;96702.72;10289806;28;20038;-21
2022/03/06 05:10:42;;;;;;;2.73;2.00;;;;;;;17.77;45.03;96705.25;10283782;28;20302;-21
2022/03/06 05:15:43;;;;;;;2.63;2.40;;;;;;;17.72;45.32;96703.53;10285371;28;20316;-21
2022/03/06 05:20:44;;;;;;;3.17;2.17;;;;;;;17.78;45.06;96708.63;10284913;28;20049;-22
2022/03/06 05:25:46;;;;;;;2.38;2.17;;;;;;;17.80;45.03;96707.78;10282813;28;20042;-21
2022/03/06 05:30:47;;;;;;;4.05;2.70;;;;;;;17.88;44.89;96710.31;10288579;28;20484;-22
2022/03/06 05:35:47;;;;;;;3.63;2.08;;;;;;;17.84;45.22;96708.63;10283639;28;20034;-21
2022/03/06 05:40:48;;;;;;;3.33;2.45;;;;;;;17.85;44.87;96705.25;10282515;28;20046;-21
2022/03/06 05:45:50;;;;;;;2.53;2.33;;;;;;;17.83;45.24;96707.78;10295471;28;20712;-21
2022/03/06 05:50:50;;;;;;;2.78;2.40;;;;;;;17.82;44.90;96706.09;10285195;28;20289;-22
2022/03/06 05:55:51;;;;;;;3.42;2.65;;;;;;;17.83;45.12;96714.56;10283272;28;20045;-20
2022/03/06 06:00:52;;;;;;;3.13;2.38;;;;;;;17.77;45.02;96701.88;10290746;28;20034;-21
2022/03/06 06:05:52;;;;;;;2.50;2.30;;;;;;;17.87;44.88;96721.28;10288450;28;20039;-21
2022/03/06 06:10:52;;;;;;;2.40;2.10;;;;;;;17.83;44.96;96722.97;10283818;28;20026;-22
2022/03/06 06:15:53;;;;;;;3.17;2.30;;;;;;;17.77;45.08;96727.19;10282584;28;20045;-21
2022/03/06 06:20:54;;;;;;;2.70;2.22;;;;;;;17.80;44.90;96735.63;10269701;28;20034;-21
2022/03/06 06:25:54;;;;;;;2.13;1.92;;;;;;;17.82;44.90;96741.53;10284738;28;20117;-21
2022/03/06 06:30:54;;;;;;;3.43;2.97;;;;;;;17.81;45.02;96739.88;10283422;28;20086;-21
2022/03/06 06:35:55;;;;;;;2.50;2.30;;;;;;;17.86;44.91;96743.25;10274171;28;20038;-21
2022/03/06 06:40:55;;;;;;;2.37;1.97;;;;;;;17.87;44.91;96744.09;10273792;28;20095;-21
2022/03/06 06:45:56;;;;;;;2.90;2.53;;;;;;;17.88;45.02;96746.63;10292915;28;20304;-21
2022/03/06 06:50:58;;;;;;;2.40;2.13;;;;;;;17.94;44.93;96755.94;10284325;28;20089;-22
2022/03/06 06:55:59;;;;;;;2.33;2.13;;;;;;;17.82;44.76;96736.47;10283377;28;20035;-21
2022/03/06 07:00:59;;;;;;;2.63;2.42;;;;;;;17.91;45.19;96749.16;10287624;28;20038;-23
2022/03/06 07:05:59;;;;;;;3.30;2.23;;;;;;;17.98;44.36;96753.41;10279747;28;20449;-22
2022/03/06 07:11:00;;;;;;;2.77;2.07;;;;;;;17.96;44.82;96751.72;10284364;28;20414;-21
2022/03/06 07:16:00;;;;;;;2.63;2.43;;;;;;;17.94;44.61;96754.25;10277405;28;20289;-22
2022/03/06 07:21:02;;;;;;;2.83;2.10;;;;;;;17.96;44.79;96764.38;10272588;28;20325;-21
2022/03/06 07:26:02;;;;;;;3.42;2.13;;;;;;;17.94;45.22;96776.19;10258501;28;20046;-21
2022/03/06 07:31:03;;;;;;;2.85;2.47;;;;;;;17.93;44.78;96769.44;10278216;28;20045;-21
2022/03/06 07:36:05;;;;;;;3.10;2.27;;;;;;;17.95;44.84;96780.41;10299434;28;20030;-21
2022/03/06 07:41:05;;;;;;;9.95;4.85;;;;;;;17.68;44.12;96787.94;10294290;28;20291;-21
2022/03/06 07:46:06;;;;;;;3.92;2.90;;;;;;;17.83;45.05;96790.53;10300028;28;20041;-21
2022/03/06 07:51:06;;;;;;;4.03;2.95;;;;;;;17.87;44.89;96792.22;10310469;28;20092;-21
2022/03/06 07:56:07;;;;;;;4.63;3.03;;;;;;;17.81;44.64;96789.66;10300317;28;20325;-20
2022/03/06 08:01:07;;;;;;;3.93;3.03;;;;;;;17.90;44.79;96799.84;10286861;28;20045;-21
2022/03/06 08:06:07;;;;;;;8.90;6.30;;;;;;;17.57;42.76;96797.16;10287111;28;20289;-21
2022/03/06 08:11:08;;;;;;;8.30;6.30;;;;;;;17.64;41.17;96792.13;10296746;28;20301;-21
2022/03/06 08:16:08;;;;;;;6.33;3.97;;;;;;;17.85;43.85;96788.84;10299015;28;20035;-21
2022/03/06 08:21:09;;;;;;;6.03;3.75;;;;;;;17.85;43.80;96796.44;10283196;28;20047;-21
2022/03/06 08:26:09;;;;;;;4.13;3.50;;;;;;;17.82;44.19;96794.72;10288032;28;20409;-21
2022/03/06 08:31:10;;;;;;;4.73;3.77;;;;;;;17.83;44.22;96796.41;10281480;28;20287;-22
2022/03/06 08:36:11;;;;;;;4.13;3.45;;;;;;;17.81;44.17;96790.50;10289035;28;20056;-21
2022/03/06 08:41:12;;;;;;;4.70;3.03;;;;;;;17.80;44.31;96791.34;10283585;28;20032;-21
2022/03/06 08:46:12;;;;;;;3.47;2.88;;;;;;;17.80;44.25;96793.03;10279303;28;20026;-21
2022/03/06 08:51:13;;;;;;;3.87;3.13;;;;;;;17.86;44.60;96793.06;10282705;28;20031;-21
2022/03/06 08:56:14;;;;;;;7.53;3.22;;;;;;;17.84;44.46;96790.50;10281629;28;20042;-21
2022/03/06 09:01:14;;;;;;;16.25;6.55;;;;;;;17.29;41.58;96788.53;10291924;28;20034;-20
2022/03/06 09:06:14;;;;;;;7.43;3.80;;;;;;;17.71;43.91;96790.47;10279889;28;20402;-21
2022/03/06 09:11:15;;;;;;;7.87;4.70;;;;;;;17.81;42.92;96790.50;10288229;28;21477;-21
2022/03/06 09:16:15;;;;;;;9.97;6.30;;;;;;;17.26;38.97;96778.38;10283252;28;20043;-20
2022/03/06 09:21:16;;;;;;;13.77;7.23;;;;;;;16.96;37.48;96779.88;10284027;28;20031;-20
2022/03/06 09:26:16;;;;;;;10.70;6.65;;;;;;;17.41;38.13;96777.69;10275288;28;20042;-21
2022/03/06 09:31:17;;;;;;;9.85;5.20;;;;;;;17.55;40.09;96776.03;10295920;28;20451;-20
2022/03/06 09:36:17;;;;;;;9.48;4.75;;;;;;;17.66;41.31;96784.56;10284617;28;20437;-21
2022/03/06 09:41:23;;;;;;;4.90;3.83;;;;;;;17.74;42.11;96777.84;10287123;28;20446;-21
2022/03/06 09:46:24;;;;;;;7.22;4.18;;;;;;;17.74;42.79;96776.13;10284522;28;20659;-21
2022/03/06 09:51:25;;;;;;;6.95;3.78;;;;;;;17.81;43.01;96774.44;10280875;28;20097;-20
2022/03/06 09:56:26;;;;;;;4.70;3.97;;;;;;;17.82;43.14;96771.09;10283779;28;20038;-20
2022/03/06 10:01:26;;;;;;;4.22;3.38;;;;;;;17.84;43.03;96777.84;10278843;28;20039;-21
2022/03/06 10:06:27;;;;;;;4.68;3.53;;;;;;;17.87;43.34;96774.47;10279751;28;20034;-22
2022/03/06 10:11:27;;;;;;;4.57;3.53;;;;;;;17.89;43.32;96772.78;10275469;28;20036;-20
2022/03/06 10:16:29;;;;;;;4.28;3.50;;;;;;;17.90;43.68;96779.59;10281733;28;20042;-21
2022/03/06 10:21:32;;;;;;;4.40;3.47;;;;;;;17.87;43.52;96774.47;10280353;28;20046;-21
2022/03/06 10:26:36;;;;;;;3.22;2.78;;;;;;;17.93;43.59;96771.97;10272111;28;20031;-21
2022/03/06 10:31:37;;;;;;;4.13;3.72;;;;;;;17.94;43.70;96776.19;10286884;28;20552;-21
2022/03/06 10:36:42;;;;;;;4.90;3.30;;;;;;;17.92;43.58;96772.81;10284154;28;20034;-21
2022/03/06 10:41:47;;;;;;;4.63;3.17;;;;;;;17.85;43.85;96761.84;10281731;28;20039;-22
2022/03/06 10:46:58;;;;;;;4.30;3.53;;;;;;;17.90;44.08;96759.31;10275349;28;20043;-21
2022/03/06 10:52:14;;;;;;;4.28;3.10;;;;;;;17.94;43.91;96761.00;10287252;28;20034;-21
2022/03/06 10:57:14;;;;;;;4.45;3.13;;;;;;;17.93;44.04;96756.78;10286734;28;20034;-20
2022/03/06 11:02:15;;;;;;;5.40;2.97;;;;;;;17.91;44.10;96745.81;10283655;28;20057;-21
2022/03/06 11:07:16;;;;;;;4.28;3.25;;;;;;;17.94;43.98;96754.25;10284450;28;20030;-21
2022/03/06 11:12:17;;;;;;;4.40;3.03;;;;;;;17.90;44.07;96749.19;10293297;28;20487;-21
2022/03/06 11:17:18;;;;;;;3.80;3.50;;;;;;;17.95;43.88;96758.47;10296216;28;20031;-21
2022/03/06 11:22:24;;;;;;;3.08;2.78;;;;;;;17.95;43.98;96755.09;10285045;28;20502;-21
2022/03/06 11:27:39;;;;;;;4.25;2.70;;;;;;;17.97;44.50;96755.94;10292612;28;20038;-21
2022/03/06 11:32:41;;;;;;;3.50;2.83;;;;;;;17.97;44.37;96758.47;10285918;28;20491;-21
2022/03/06 11:38:12;;;;;;;4.50;3.28;;;;;;;17.89;44.33;96734.81;10295173;28;20063;-22
2022/03/06 11:43:33;;;;;;;3.38;2.58;;;;;;;17.87;44.52;96741.56;10293087;28;20133;-21
2022/03/06 11:48:33;;;;;;;4.30;3.05;;;;;;;17.92;44.46;96742.44;10290128;28;20027;-21
2022/03/06 11:54:01;;;;;;;4.78;2.80;;;;;;;17.94;44.19;96743.28;10283410;28;20039;-21
2022/03/06 11:59:10;;;;;;;3.42;2.88;;;;;;;17.95;44.45;96737.34;10286950;28;20058;-21
2022/03/06 12:04:12;;;;;;;3.08;2.53;;;;;;;17.92;44.32;96722.16;10290803;28;20272;-22
2022/03/06 12:09:24;;;;;;;3.35;2.97;;;;;;;17.88;44.59;96722.97;10285981;28;20622;-21
2022/03/06 12:14:28;;;;;;;2.80;2.60;;;;;;;17.93;44.56;96728.91;10288188;28;20165;-22
2022/03/06 12:19:54;;;;;;;3.60;2.53;;;;;;;17.92;44.63;96727.22;10275541;28;20038;-22
2022/03/06 12:25:03;;;;;;;2.70;2.50;;;;;;;17.94;44.66;96728.94;10279774;28;20045;-21
2022/03/06 12:30:17;;;;;;;3.47;3.13;;;;;;;17.96;45.01;96718.78;10287900;28;20235;-21
2022/03/06 12:35:22;;;;;;;3.15;2.85;;;;;;;18.00;44.92;96721.31;10281192;28;20034;-21
2022/03/06 12:40:24;;;;;;;3.35;3.05;;;;;;;18.01;44.56;96717.94;10289703;28;20182;-21
2022/03/06 12:45:25;;;;;;;3.22;2.67;;;;;;;17.98;44.46;96707.00;10286935;28;20444;-21
2022/03/06 12:50:26;;;;;;;3.92;2.92;;;;;;;17.95;44.84;96705.28;10287056;28;20035;-21
2022/03/06 12:55:26;;;;;;;3.05;2.63;;;;;;;17.97;44.61;96702.75;10288244;28;20030;-20
2022/03/06 13:00:33;;;;;;;3.35;2.58;;;;;;;17.96;44.64;96694.31;10280445;28;20082;-22
2022/03/06 13:05:36;;;;;;;2.58;2.38;;;;;;;17.94;44.73;96679.94;10287639;28;20633;-20
2022/03/06 13:10:36;;;;;;;3.13;2.53;;;;;;;17.95;44.70;96681.63;10291346;28;20030;-21
2022/03/06 13:15:38;;;;;;;3.03;2.73;;;;;;;17.95;44.65;96686.69;10285806;28;20034;-21
2022/03/06 13:20:40;;;;;;;5.80;2.20;;;;;;;17.95;44.82;96679.09;10280428;28;20034;-22
2022/03/06 13:25:40;;;;;;;2.95;2.65;;;;;;;17.96;44.73;96673.19;10284788;28;20034;-21
2022/03/06 13:30:40;;;;;;;2.67;2.47;;;;;;;17.93;44.74;96663.06;10292927;28;20034;-21
2022/03/06 13:35:43;;;;;;;3.20;2.53;;;;;;;17.99;45.13;96670.69;10289232;28;20046;-22
2022/03/06 13:40:49;;;;;;;2.75;2.55;;;;;;;18.02;45.26;96655.47;10285496;28;20740;-20
2022/03/06 13:45:55;;;;;;;3.22;2.72;;;;;;;18.01;44.79;96662.22;10286521;28;20723;-21
2022/03/06 13:50:56;;;;;;;2.60;2.40;;;;;;;17.97;44.92;96664.75;10286157;28;20041;-21
2022/03/06 13:56:00;;;;;;;2.85;2.55;;;;;;;17.94;44.75;96654.63;10282459;28;20076;-22
2022/03/06 14:01:00;;;;;;;3.47;3.17;;;;;;;17.99;44.93;96663.91;10277298;28;20042;-21
2022/03/06 14:06:03;;;;;;;3.00;2.70;;;;;;;17.98;45.17;96671.53;10285026;28;20057;-20
2022/03/06 14:11:05;;;;;;;2.65;2.45;;;;;;;17.90;44.78;96653.78;10280300;28;20301;-21
2022/03/06 14:16:08;;;;;;;10.60;4.75;;;;;;;17.87;39.24;96673.19;10279641;28;20527;-20
2022/03/06 14:21:20;;;;;;;7.30;3.50;;;;;;;17.72;42.60;96657.94;10286140;28;20035;-21
2022/03/06 14:26:25;;;;;;;13.82;4.57;;;;;;;17.86;43.43;96666.44;10273957;28;20062;-21
2022/03/06 14:31:28;;;;;;;8.88;3.83;;;;;;;17.89;43.99;96666.41;10282323;28;20076;-22
2022/03/06 14:36:29;;;;;;;8.70;3.17;;;;;;;17.84;44.44;96646.16;10289504;28;20038;-22
2022/03/06 14:41:29;;;;;;;8.40;3.40;;;;;;;17.97;44.44;96665.59;10281328;28;20645;-22
2022/03/06 14:46:30;;;;;;;7.93;3.03;;;;;;;18.01;44.60;96663.91;10286761;28;20057;-22
2022/03/06 14:51:31;;;;;;;6.25;3.42;;;;;;;17.95;44.56;96666.44;10282288;28;20070;-23
2022/03/06 14:56:32;;;;;;;5.57;3.65;;;;;;;17.96;44.41;96673.19;10279109;28;20454;-22
2022/03/06 15:01:33;;;;;;;2.70;2.40;;;;;;;17.96;44.66;96655.47;10269421;28;20043;-21
2022/03/06 15:06:35;;;;;;;4.35;2.70;;;;;;;17.96;44.75;96663.06;10280071;28;20491;-21
2022/03/06 15:11:35;;;;;;;4.22;2.38;;;;;;;17.95;44.59;96663.91;10283644;28;20520;-21
2022/03/06 15:16:36;;;;;;;4.43;2.67;;;;;;;17.90;44.64;96652.94;10284494;28;20031;-22
2022/03/06 15:21:36;;;;;;;3.23;2.53;;;;;;;17.98;44.72;96676.59;10283807;28;20507;-22
2022/03/06 15:26:37;;;;;;;4.05;2.97;;;;;;;17.96;44.97;96671.50;10281388;28;20547;-22
2022/03/06 15:31:39;;;;;;;4.25;2.85;;;;;;;17.95;44.43;96658.84;10283288;28;20023;-22
2022/03/06 15:36:40;;;;;;;4.68;2.97;;;;;;;17.93;44.53;96658.81;10282752;28;20538;-22
2022/03/06 15:41:41;;;;;;;3.97;2.78;;;;;;;17.97;44.59;96662.22;10283666;28;20035;-22
2022/03/06 15:46:41;;;;;;;4.93;2.78;;;;;;;18.03;44.95;96669.81;10285054;28;20030;-22
2022/03/06 15:51:41;;;;;;;5.77;2.73;;;;;;;18.07;44.84;96666.47;10285934;28;20034;-22
2022/03/06 15:56:43;;;;;;;3.60;3.00;;;;;;;18.02;44.79;96665.59;10287544;28;20031;-22
2022/03/06 16:01:43;;;;;;;5.73;2.90;;;;;;;17.99;45.09;96673.22;10279548;28;20675;-21
2022/03/06 16:06:45;;;;;;;12.20;5.15;;;;;;;17.90;42.49;96678.28;10285744;28;20294;-21
2022/03/06 16:11:45;;;;;;;11.48;4.57;;;;;;;17.82;44.47;96677.41;10291567;28;20541;-21
2022/03/06 16:16:45;;;;;;;7.83;3.37;;;;;;;17.93;44.51;96678.25;10285360;28;20116;-21
2022/03/06 16:21:47;;;;;;;4.13;2.40;;;;;;;17.97;44.78;96680.81;10290437;28;20039;-22
2022/03/06 16:26:47;;;;;;;3.43;2.87;;;;;;;17.99;44.62;96691.78;10282114;28;20031;-21
2022/03/06 16:31:51;;;;;;;11.18;3.33;;;;;;;18.00;44.72;96685.03;10294862;28;20278;-22
2022/03/06 16:36:51;;;;;;;14.05;4.32;;;;;;;18.10;46.09;96686.72;10290961;28;20092;-22
2022/03/06 16:41:51;;;;;;;10.40;3.60;;;;;;;18.15;44.91;96674.91;10288748;28;20708;-22
2022/03/06 16:46:53;;;;;;;8.50;3.07;;;;;;;18.10;44.64;96681.66;10285970;28;20037;-21
2022/03/06 16:51:54;;;;;;;8.63;3.85;;;;;;;18.07;45.04;96684.19;10273864;28;20038;-21
2022/03/06 16:56:54;;;;;;;6.63;3.30;;;;;;;18.03;45.24;96680.81;10289082;28;20040;-21
2022/03/06 17:01:54;;;;;;;5.50;3.10;;;;;;;17.87;45.49;96663.91;10286049;28;20300;-22
2022/03/06 17:06:55;;;;;;;8.67;4.03;;;;;;;18.04;45.13;96687.56;10280829;28;20871;-22
2022/03/06 17:11:55;;;;;;;10.77;3.50;;;;;;;18.02;45.23;96689.25;10287483;28;20552;-22
2022/03/06 17:16:57;;;;;;;7.70;2.70;;;;;;;18.01;45.11;96701.91;10287656;28;20038;-22
2022/03/06 17:21:57;;;;;;;6.85;3.00;;;;;;;18.00;45.34;96693.47;10280956;28;20038;-22
2022/03/06 17:26:58;;;;;;;4.13;3.00;;;;;;;18.01;45.00;96701.91;10286224;28;20030;-22
2022/03/06 17:31:59;;;;;;;13.23;3.10;;;;;;;18.08;45.99;96713.75;10277761;28;20282;-21
2022/03/06 17:36:59;;;;;;;10.27;3.38;;;;;;;18.08;45.11;96723.88;10287482;28;20038;-22
2022/03/06 17:42:00;;;;;;;11.00;3.83;;;;;;;17.99;45.58;96734.00;10277954;28;20034;-22
2022/03/06 17:47:02;;;;;;;16.70;4.47;;;;;;;17.93;44.74;96739.88;10287254;28;20542;-23
2022/03/06 17:52:02;;;;;;;10.07;3.35;;;;;;;17.96;45.20;96744.97;10279728;28;20046;-22
2022/03/06 17:57:03;;;;;;;5.13;2.80;;;;;;;17.97;45.41;96755.94;10279864;28;20069;-22
2022/03/06 18:02:04;;;;;;;5.38;3.05;;;;;;;17.99;44.98;96751.75;10279293;28;20039;-22
2022/03/06 18:07:04;;;;;;;8.65;3.15;;;;;;;17.98;45.00;96752.59;10278221;28;20068;-21
2022/03/06 18:12:05;;;;;;;9.02;3.45;;;;;;;17.99;45.12;96759.34;10285211;28;20026;-21
2022/03/06 18:17:06;;;;;;;13.32;3.75;;;;;;;17.99;44.95;96762.69;10290316;28;20034;-22
2022/03/06 18:22:06;;;;;;;8.27;3.05;;;;;;;17.99;45.18;96766.94;10281340;28;20037;-27
2022/03/06 18:27:07;;;;;;;14.30;3.27;;;;;;;18.07;45.61;96770.34;10289502;28;20038;-22
2022/03/06 18:32:10;;;;;;;14.10;4.43;;;;;;;18.09;45.69;96777.06;10279975;28;20293;-22
2022/03/06 18:37:12;;;;;;;7.57;3.10;;;;;;;18.08;45.24;96774.56;10285008;28;20046;-22
2022/03/06 18:42:13;;;;;;;9.18;2.83;;;;;;;18.03;45.02;96778.75;10282230;28;20587;-22
2022/03/06 18:47:14;;;;;;;6.97;2.80;;;;;;;17.94;45.01;96778.72;10281781;28;20038;-22
2022/03/06 18:52:15;;;;;;;5.43;3.35;;;;;;;17.97;44.71;96793.94;10281370;28;20506;-22
2022/03/06 18:57:15;;;;;;;5.85;2.90;;;;;;;17.94;44.74;96791.41;10279039;28;20038;-21
2022/03/06 19:02:16;;;;;;;8.30;3.08;;;;;;;17.92;44.69;96790.56;10275010;28;20094;-22
2022/03/06 19:07:16;;;;;;;7.18;3.10;;;;;;;17.95;44.51;96805.75;10264271;28;20049;-22
2022/03/06 19:12:17;;;;;;;7.68;2.95;;;;;;;17.92;45.07;96810.81;10267850;28;20117;-22
2022/03/06 19:17:19;;;;;;;4.78;3.65;;;;;;;17.94;44.77;96817.59;10279863;28;20038;-22
2022/03/06 19:22:19;;;;;;;5.85;3.08;;;;;;;17.94;44.99;96816.72;10280901;28;20168;-21
2022/03/06 19:27:20;;;;;;;11.27;4.65;;;;;;;18.06;46.31;96825.22;10294748;28;20402;-22
2022/03/06 19:32:24;;;;;;;12.13;5.47;;;;;;;18.11;46.76;96820.16;10290094;28;20053;-22
2022/03/06 19:37:25;;;;;;;5.47;3.10;;;;;;;18.08;45.38;96815.91;10295464;28;20031;-22
2022/03/06 19:42:26;;;;;;;4.85;2.47;;;;;;;18.06;44.60;96821.81;10292977;28;20404;-21
2022/03/06 19:47:27;;;;;;;4.68;2.63;;;;;;;18.00;44.69;96826.88;10290825;28;20042;-18
2022/03/06 19:52:27;;;;;;;4.28;2.53;;;;;;;18.00;44.69;96821.81;10279123;28;20053;-22
2022/03/06 19:57:28;;;;;;;3.87;2.83;;;;;;;18.00;44.46;96832.78;10291226;28;20033;-22
2022/03/06 20:02:28;;;;;;;4.23;2.57;;;;;;;17.99;44.46;96841.22;10275000;28;20039;-22
2022/03/06 20:07:29;;;;;;;6.35;3.00;;;;;;;17.97;44.29;96847.13;10289371;28;20042;-22
2022/03/06 20:12:30;;;;;;;5.22;2.92;;;;;;;17.98;44.39;96841.25;10285232;28;20027;-21
2022/03/06 20:17:30;;;;;;;6.03;2.90;;;;;;;17.97;44.36;96847.13;10286880;28;20031;-21
2022/03/06 20:22:31;;;;;;;4.43;2.65;;;;;;;17.96;44.41;96840.38;10269389;28;20117;-23
2022/03/06 20:27:32;;;;;;;5.37;3.60;;;;;;;18.03;46.95;96852.22;10278329;28;20039;-22
2022/03/06 20:32:34;;;;;;;9.73;3.83;;;;;;;18.09;47.21;96855.63;10285644;28;20295;-22
2022/03/06 20:37:35;;;;;;;5.45;3.17;;;;;;;18.07;44.89;96851.41;10272742;28;20479;-22
2022/03/06 20:42:35;;;;;;;5.05;3.53;;;;;;;18.01;45.56;96856.44;10286005;28;20058;-22
2022/03/06 20:47:36;;;;;;;7.05;3.13;;;;;;;17.91;45.75;96852.19;10270582;28;20031;-22
2022/03/06 20:52:37;;;;;;;5.05;3.10;;;;;;;17.94;45.77;96862.31;10268412;28;20054;-22
2022/03/06 20:57:37;;;;;;;5.87;3.27;;;;;;;17.94;45.99;96854.72;10276892;28;20039;-21
2022/03/06 21:02:38;;;;;;;8.97;3.17;;;;;;;17.90;46.26;96850.50;10278127;28;20035;-21
2022/03/06 21:07:38;;;;;;;7.63;3.67;;;;;;;17.96;46.25;96865.69;10278551;28;20499;-22
2022/03/06 21:12:39;;;;;;;5.85;2.83;;;;;;;17.96;46.34;96865.69;10284747;28;20578;-22
2022/03/06 21:17:40;;;;;;;5.50;2.72;;;;;;;17.96;46.29;96875.84;10283180;28;20027;-22
2022/03/06 21:22:41;;;;;;;3.85;2.88;;;;;;;17.95;46.09;96869.94;10268843;28;20046;-21
2022/03/06 21:27:41;;;;;;;5.05;3.05;;;;;;;17.96;46.25;96870.75;10274767;28;20031;-21
2022/03/06 21:32:42;;;;;;;8.52;3.75;;;;;;;18.04;47.18;96876.72;10272995;28;20403;-22
2022/03/06 21:37:43;;;;;;;6.28;3.35;;;;;;;17.98;48.26;96875.00;10289418;28;20089;-22
2022/03/06 21:42:45;;;;;;;7.05;3.38;;;;;;;17.97;46.29;96873.31;10274888;28;20046;-22
2022/03/06 21:47:47;;;;;;;4.90;3.05;;;;;;;17.94;46.89;96867.38;10280770;28;20655;-22
2022/03/06 21:52:47;;;;;;;11.82;3.58;;;;;;;17.96;46.42;96870.75;10278462;28;20027;-22
2022/03/06 21:57:50;;;;;;;5.93;3.80;;;;;;;17.92;46.37;96866.53;10279692;28;20559;-21
2022/03/06 22:02:50;;;;;;;6.20;3.53;;;;;;;17.93;46.41;96865.69;10275914;28;20035;-22
2022/03/06 22:07:51;;;;;;;5.23;4.03;;;;;;;17.91;46.30;96865.69;10269528;28;20045;-22
2022/03/06 22:12:51;;;;;;;6.07;3.60;;;;;;;17.91;46.41;96872.44;10276614;28;20033;-22
2022/03/06 22:17:51;;;;;;;4.27;3.07;;;;;;;17.89;46.61;96866.50;10281212;28;20035;-22
2022/03/06 22:22:52;;;;;;;4.23;3.30;;;;;;;17.89;46.44;96871.56;10274899;28;20077;-21
2022/03/06 22:27:52;;;;;;;5.47;2.83;;;;;;;17.86;46.02;96869.03;10278101;28;20027;-22
2022/03/06 22:32:53;;;;;;;5.75;3.33;;;;;;;17.94;48.18;96867.38;10269906;28;20489;-23
2022/03/06 22:37:53;;;;;;;6.45;3.53;;;;;;;17.98;47.72;96872.47;10285507;28;20398;-21
2022/03/06 22:42:53;;;;;;;6.43;3.13;;;;;;;17.91;48.08;96868.22;10279556;28;20062;-21
2022/03/06 22:47:54;;;;;;;8.27;3.37;;;;;;;17.90;46.77;96865.69;10267361;28;20034;-21
2022/03/06 22:52:54;;;;;;;4.23;3.20;;;;;;;17.88;47.00;96868.22;10277238;28;20118;-22
2022/03/06 22:57:54;;;;;;;7.45;3.72;;;;;;;17.81;46.56;96855.50;10283135;28;20038;-22
2022/03/06 23:02:55;;;;;;;7.70;4.07;;;;;;;17.87;46.83;96865.66;10271111;28;20026;-22
2022/03/06 23:07:55;;;;;;;5.60;3.37;;;;;;;17.85;46.97;96862.28;10267400;28;20286;-22
2022/03/06 23:12:56;;;;;;;5.23;3.37;;;;;;;17.85;46.64;96862.28;10280236;28;20125;-22
2022/03/06 23:17:56;;;;;;;6.50;3.90;;;;;;;17.85;46.20;96862.28;10266458;28;20309;-22
2022/03/06 23:23:00;;;;;;;5.38;3.15;;;;;;;17.84;46.53;96860.59;10267003;28;20037;-22